Partenope — ICCZ — position and weather

sailwx.info

Track history (hours):
 
Tides and Currents Weather Stations Pressure Air Temp Water Temp Dewpoint Dewpoint Depression Visibility Wind Speed Wind Dir Waves Ship Positions

Partenope

Last reported at 2015-Mar-27 22:18 UTC. Time now 2015-Mar-29 07:28 UTC.
Position N 40°14' E 014°28'.

Length 186 m; draft 6.2 m.

Type: Passenger vessel. MMSI: 247060500.

Date/timePositionNaut miles runAvg speedWind from/ knotsBaromVisibWave heightAir tempDewpointWater temp
2015-Mar-27 22:18N 40°14' E 014°28'1419.2
2015-Mar-27 21:34N 40°28' E 014°20'2019.4
2015-Mar-27 20:33N 40°47' E 014°17'3 0.4
2015-Mar-27 11:16N 40°50' E 014°16'1 0.6
2015-Mar-27 10:22N 40°50' E 014°16'1518.0
2015-Mar-27 09:33N 40°35' E 014°16'2019.3
2015-Mar-27 08:31N 40°17' E 014°28'2 0.0
2015-Mar-25 22:30N 40°16' E 014°27'1818.8
2015-Mar-25 21:33N 40°33' E 014°17'17 1.5
2015-Mar-25 10:04N 40°50' E 014°16'816.1
2015-Mar-25 09:33N 40°42' E 014°17'2018.3
2015-Mar-25 08:27N 40°24' E 014°28'8 0.2
2015-Mar-23 22:28N 40°15' E 014°28'1819.3
2015-Mar-23 21:32N 40°32' E 014°18'19 2.9
2015-Mar-23 15:05N 40°50' E 014°16'1 0.0
2015-Mar-22 11:10N 40°50' E 014°16'1117.2
2015-Mar-22 10:33N 40°40' E 014°16'1918.5
2015-Mar-22 09:32N 40°23' E 014°27'147 5.3
2015-Mar-21 06:03N 38°04' E 015°32'14318.0
2015-Mar-20 22:08N 40°18' E 014°27'1119.5
2015-Mar-20 21:33N 40°28' E 014°20'1919.3
2015-Mar-20 20:33N 40°47' E 014°17'3 0.3
2015-Mar-20 10:07N 40°50' E 014°17'1118.6
2015-Mar-20 09:33N 40°39' E 014°16'2019.5
2015-Mar-20 08:32N 40°21' E 014°26'3 0.1
2015-Mar-18 22:33N 40°19' E 014°24'1919.5
2015-Mar-18 21:34N 40°37' E 014°17'11 1.0
2015-Mar-18 10:32N 40°48' E 014°17'1919.1
2015-Mar-18 09:33N 40°29' E 014°20'  
Track history (hours):
 
Tides and Currents Weather Stations Pressure Air Temp Water Temp Dewpoint Dewpoint Depression Visibility Wind Speed Wind Dir Waves Ship Positions

Partenope

Last reported at 2015-Mar-27 22:18 UTC. Time now 2015-Mar-29 07:28 UTC.
Position N 40°14' E 014°28'.

Length 186 m; draft 6.2 m.

Type: Passenger vessel. MMSI: 247060500.

Date/timePositionNaut miles runAvg speedWind from/ knotsBaromVisibWave heightAir tempDewpointWater temp
2015-Mar-27 22:18N 40°14' E 014°28'1419.2
2015-Mar-27 21:34N 40°28' E 014°20'2019.4
2015-Mar-27 20:33N 40°47' E 014°17'3 0.4
2015-Mar-27 11:16N 40°50' E 014°16'1 0.6
2015-Mar-27 10:22N 40°50' E 014°16'1518.0
2015-Mar-27 09:33N 40°35' E 014°16'2019.3
2015-Mar-27 08:31N 40°17' E 014°28'2 0.0
2015-Mar-25 22:30N 40°16' E 014°27'1818.8
2015-Mar-25 21:33N 40°33' E 014°17'17 1.5
2015-Mar-25 10:04N 40°50' E 014°16'816.1
2015-Mar-25 09:33N 40°42' E 014°17'2018.3
2015-Mar-25 08:27N 40°24' E 014°28'8 0.2
2015-Mar-23 22:28N 40°15' E 014°28'1819.3
2015-Mar-23 21:32N 40°32' E 014°18'19 2.9
2015-Mar-23 15:05N 40°50' E 014°16'1 0.0
2015-Mar-22 11:10N 40°50' E 014°16'1117.2
2015-Mar-22 10:33N 40°40' E 014°16'1918.5
2015-Mar-22 09:32N 40°23' E 014°27'147 5.3
2015-Mar-21 06:03N 38°04' E 015°32'14318.0
2015-Mar-20 22:08N 40°18' E 014°27'1119.5
2015-Mar-20 21:33N 40°28' E 014°20'1919.3
2015-Mar-20 20:33N 40°47' E 014°17'3 0.3
2015-Mar-20 10:07N 40°50' E 014°17'1118.6
2015-Mar-20 09:33N 40°39' E 014°16'2019.5
2015-Mar-20 08:32N 40°21' E 014°26'3 0.1
2015-Mar-18 22:33N 40°19' E 014°24'1919.5
2015-Mar-18 21:34N 40°37' E 014°17'11 1.0
2015-Mar-18 10:32N 40°48' E 014°17'1919.1
2015-Mar-18 09:33N 40°29' E 014°20'  

Dump ship's entire track history